<?xml version="1.0" encoding="UTF-8" standalone="no" ?>
<gpx xmlns="http://www.topografix.com/GPX/1/1" xmlns:xsi="http://www.w3.org/2001/XMLSchema-instance" xsi:schemaLocation="http://www.topografix.com/GPX/1/1 http://www.topografix.com/GPX/1/1/gpx.xsd" version="1.1" creator="VisuGPX - https://www.visugpx.com">
  <metadata>
    <name>Etape 2 Férel - Les Moûtiers</name>
    <desc><![CDATA[Randonnée vélo Rennes - Hendaye, empruntant la Vélodyssée à partir de Saint-Brevin-Les-Pins. ]]></desc>
  </metadata>
  <trk>
    <name><![CDATA[Sequence 29]]></name>
    <trkseg>
      <trkpt lat="47.11892" lon="-2.09148">
        <ele>7</ele>
        <time>2016-07-22T13:29:36Z</time>
      </trkpt>
      <trkpt lat="47.11896" lon="-2.09158">
        <ele>8</ele>
        <time>2016-07-22T13:29:40Z</time>
      </trkpt>
      <trkpt lat="47.11898" lon="-2.09163">
        <ele>8</ele>
        <time>2016-07-22T13:29:42Z</time>
      </trkpt>
      <trkpt lat="47.11896" lon="-2.09176">
        <ele>10</ele>
        <time>2016-07-22T13:29:47Z</time>
      </trkpt>
      <trkpt lat="47.11897" lon="-2.0919">
        <ele>11</ele>
        <time>2016-07-22T13:29:52Z</time>
      </trkpt>
      <trkpt lat="47.11897" lon="-2.09201">
        <ele>11</ele>
        <time>2016-07-22T13:29:57Z</time>
      </trkpt>
      <trkpt lat="47.11901" lon="-2.09206">
        <ele>11</ele>
        <time>2016-07-22T13:30:02Z</time>
      </trkpt>
      <trkpt lat="47.11902" lon="-2.09213">
        <ele>14</ele>
        <time>2016-07-22T13:30:07Z</time>
      </trkpt>
      <trkpt lat="47.11901" lon="-2.09229">
        <ele>14</ele>
        <time>2016-07-22T13:30:12Z</time>
      </trkpt>
      <trkpt lat="47.11897" lon="-2.09249">
        <ele>16</ele>
        <time>2016-07-22T13:30:17Z</time>
      </trkpt>
      <trkpt lat="47.11895" lon="-2.09266">
        <ele>17</ele>
        <time>2016-07-22T13:30:22Z</time>
      </trkpt>
      <trkpt lat="47.11891" lon="-2.09288">
        <ele>18</ele>
        <time>2016-07-22T13:30:27Z</time>
      </trkpt>
      <trkpt lat="47.11876" lon="-2.09288">
        <ele>17</ele>
        <time>2016-07-22T13:30:32Z</time>
      </trkpt>
      <trkpt lat="47.11859" lon="-2.09279">
        <ele>17</ele>
        <time>2016-07-22T13:30:37Z</time>
      </trkpt>
      <trkpt lat="47.11841" lon="-2.0927">
        <ele>17</ele>
        <time>2016-07-22T13:30:42Z</time>
      </trkpt>
      <trkpt lat="47.1182" lon="-2.09258">
        <ele>13</ele>
        <time>2016-07-22T13:30:48Z</time>
      </trkpt>
      <trkpt lat="47.118" lon="-2.0925">
        <ele>14</ele>
        <time>2016-07-22T13:30:53Z</time>
      </trkpt>
      <trkpt lat="47.11789" lon="-2.09251">
        <ele>12</ele>
        <time>2016-07-22T13:30:59Z</time>
      </trkpt>
      <trkpt lat="47.11783" lon="-2.09248">
        <ele>12</ele>
        <time>2016-07-22T13:31:02Z</time>
      </trkpt>
      <trkpt lat="47.11778" lon="-2.0923">
        <ele>14</ele>
        <time>2016-07-22T13:31:07Z</time>
      </trkpt>
      <trkpt lat="47.11792" lon="-2.09226">
        <ele>15</ele>
        <time>2016-07-22T13:31:12Z</time>
      </trkpt>
      <trkpt lat="47.11794" lon="-2.0925">
        <ele>15</ele>
        <time>2016-07-22T13:31:17Z</time>
      </trkpt>
      <trkpt lat="47.11792" lon="-2.0927">
        <ele>13</ele>
        <time>2016-07-22T13:31:22Z</time>
      </trkpt>
      <trkpt lat="47.11791" lon="-2.09278">
        <ele>11</ele>
        <time>2016-07-22T13:31:27Z</time>
      </trkpt>
      <trkpt lat="47.11774" lon="-2.09275">
        <ele>11</ele>
        <time>2016-07-22T13:31:32Z</time>
      </trkpt>
      <trkpt lat="47.11751" lon="-2.09266">
        <ele>10</ele>
        <time>2016-07-22T13:31:37Z</time>
      </trkpt>
      <trkpt lat="47.11724" lon="-2.09258">
        <ele>10</ele>
        <time>2016-07-22T13:31:42Z</time>
      </trkpt>
      <trkpt lat="47.11694" lon="-2.0925">
        <ele>10</ele>
        <time>2016-07-22T13:31:47Z</time>
      </trkpt>
      <trkpt lat="47.11659" lon="-2.09252">
        <ele>5</ele>
        <time>2016-07-22T13:31:53Z</time>
      </trkpt>
      <trkpt lat="47.11634" lon="-2.09264">
        <ele>5</ele>
        <time>2016-07-22T13:31:58Z</time>
      </trkpt>
      <trkpt lat="47.11615" lon="-2.09279">
        <ele>5</ele>
        <time>2016-07-22T13:32:02Z</time>
      </trkpt>
      <trkpt lat="47.11601" lon="-2.09307">
        <ele>3</ele>
        <time>2016-07-22T13:32:07Z</time>
      </trkpt>
      <trkpt lat="47.11591" lon="-2.09341">
        <ele>3.5</ele>
        <time>2016-07-22T13:32:12Z</time>
      </trkpt>
      <trkpt lat="47.11574" lon="-2.09378">
        <ele>3.1</ele>
        <time>2016-07-22T13:32:17Z</time>
      </trkpt>
      <trkpt lat="47.11564" lon="-2.0941">
        <ele>1</ele>
        <time>2016-07-22T13:32:22Z</time>
      </trkpt>
      <trkpt lat="47.11557" lon="-2.09437">
        <ele>4</ele>
        <time>2016-07-22T13:32:27Z</time>
      </trkpt>
      <trkpt lat="47.1155" lon="-2.09467">
        <ele>5</ele>
        <time>2016-07-22T13:32:32Z</time>
      </trkpt>
      <trkpt lat="47.11548" lon="-2.09506">
        <ele>7</ele>
        <time>2016-07-22T13:32:38Z</time>
      </trkpt>
      <trkpt lat="47.11544" lon="-2.09549">
        <ele>3.2</ele>
        <time>2016-07-22T13:32:44Z</time>
      </trkpt>
      <trkpt lat="47.11543" lon="-2.09562">
        <ele>3.2</ele>
        <time>2016-07-22T13:32:47Z</time>
      </trkpt>
      <trkpt lat="47.11541" lon="-2.09591">
        <ele>3.6</ele>
        <time>2016-07-22T13:32:56Z</time>
      </trkpt>
      <trkpt lat="47.1154" lon="-2.09596">
        <ele>3.6</ele>
        <time>2016-07-22T13:32:57Z</time>
      </trkpt>
      <trkpt lat="47.1154" lon="-2.0962">
        <ele>1</ele>
        <time>2016-07-22T13:33:02Z</time>
      </trkpt>
      <trkpt lat="47.11541" lon="-2.09646">
        <ele>7</ele>
        <time>2016-07-22T13:33:07Z</time>
      </trkpt>
      <trkpt lat="47.11539" lon="-2.09683">
        <ele>10</ele>
        <time>2016-07-22T13:33:14Z</time>
      </trkpt>
      <trkpt lat="47.11538" lon="-2.09699">
        <ele>14</ele>
        <time>2016-07-22T13:33:17Z</time>
      </trkpt>
      <trkpt lat="47.11537" lon="-2.0973">
        <ele>11</ele>
        <time>2016-07-22T13:33:22Z</time>
      </trkpt>
      <trkpt lat="47.11541" lon="-2.09748">
        <ele>7</ele>
        <time>2016-07-22T13:33:28Z</time>
      </trkpt>
      <trkpt lat="47.1154" lon="-2.09761">
        <ele>8</ele>
        <time>2016-07-22T13:33:32Z</time>
      </trkpt>
      <trkpt lat="47.11542" lon="-2.09776">
        <ele>11</ele>
        <time>2016-07-22T13:33:37Z</time>
      </trkpt>
      <trkpt lat="47.1154" lon="-2.098">
        <ele>13</ele>
        <time>2016-07-22T13:33:44Z</time>
      </trkpt>
      <trkpt lat="47.11538" lon="-2.09811">
        <ele>13</ele>
        <time>2016-07-22T13:33:47Z</time>
      </trkpt>
      <trkpt lat="47.11532" lon="-2.09834">
        <ele>16</ele>
        <time>2016-07-22T13:33:52Z</time>
      </trkpt>
      <trkpt lat="47.11536" lon="-2.09861">
        <ele>14</ele>
        <time>2016-07-22T13:34:01Z</time>
      </trkpt>
    </trkseg>
  </trk>
</gpx>